FEFP weather

Paoua Airport
Paoua, Ouham-Pendé, Central African Republic

Public forecast

Using degrees Celsius for public forecast. Weather courtesy of forecast.io.

METAR (pilot weather report)

Report is more than 6 hours old.

Closest report is Bossangoa Airport, 74.8 nm (138.5 km) SE. Retrieved 2010/06/15 05:00 UTC (9 years ago):

FEFS 150500Z /////KT 9999 TS SCT040CB OVC150 24/23 Q////

TAF (pilot weather forecast)

Forecast is more than 12 hours old.

Closest forecast is N'Gaoundéré Airport, 171.3 nm (317.2 km) W. Retrieved 2018/07/18 06:03 UTC (7 months ago):

TAF TAF FKKN 180500Z 1806/1818 VRB07KT FEW016 TEMPO 1213/1218 4000 TSRA BKN016 SCT020CB